• Join FlightAware (Why Join?)
  • Login
  • US Flag 
05:15PM EDT


 

Airport Tracker/Info


-or-


 

Live Flight TrackerFlight Track Log ✈ N27XP ✈ 07-Jan-2014 ✈ KHEF - KSOP

Flight Track Log - Related Links

Times and Time Zones

All times are in EST time to prevent confusion due to time zone crossing. See the N27XP flight status page for this flight to view local times or setup timezone preferences in your user account.

Time Position Orientation Groundspeed Altitude Reporting Facility
EST Latitude Longitude Course Direction KTS MPH feet Rate Location/Type
09:14PM 38.7500 -77.5833 233° Southwest 230 265 2,000  Level Potomac TRACON
09:15PM 38.7167 -77.6500 237° Southwest 246 283 5,400 3,480 Climbing Potomac TRACON
09:16PM 38.6333 -77.6500 180° South 277 319 9,400 3,060 Climbing Potomac TRACON
09:17PM 38.5506 -77.7261 216° Southwest 290 334 13,000 2,460 Climbing Washington Center
09:18PM 38.4806 -77.7825 212° Southwest 295 339 15,500 2,220 Climbing Washington Center
09:19PM 38.3150 -77.7434 233° Southwest  Level Estimated
09:19PM 38.4086 -77.8386 211° Southwest 306 352 17,500  Level Washington Center
09:20PM 38.3389 -77.8975 214° Southwest 311 358 18,600 1,260 Climbing Washington Center
09:21PM 38.2625 -77.9583 212° Southwest 311 358 20,000 1,380 Climbing Washington Center
09:22PM 38.1883 -78.0169 212° Southwest 311 358 21,400 1,320 Climbing Washington Center
09:23PM 38.1142 -78.0753 212° Southwest 316 364 22,700 1,140 Climbing Washington Center
09:24PM 38.0400 -78.1361 213° Southwest 316 364 23,800 660 Climbing Washington Center
09:25PM 37.9511 -78.1989 209° Southwest 327 376 24,000 60 Climbing Washington Center
09:26PM 37.8578 -78.2614 208° Southwest 353 406 24,000  Level Washington Center
09:27PM 37.7625 -78.3236 207° Southwest 376 433 24,000  Level Washington Center
09:28PM 37.6675 -78.3833 206° Southwest 383 441 24,000 -240 Level Washington Center
09:29PM 37.5722 -78.4428 206° Southwest 383 441 23,600 -660 Descending Washington Center
09:30PM 37.4767 -78.5044 207° Southwest 383 441 22,700 -840 Descending Washington Center
09:31PM 37.3919 -78.5589 207° Southwest 388 447 22,000 -360 Descending Washington Center
09:32PM 37.2986 -78.6203 208° Southwest 388 447 22,000  Level Washington Center
09:33PM 37.2075 -78.6794 207° Southwest 383 441 22,000  Level Washington Center
09:34PM 37.1042 -78.7194 197° South 383 441 22,000 -300 Level Washington Center
09:35PM 36.9989 -78.7569 196° South 389 448 21,500 -1,020 Descending Washington Center
09:36PM 36.8958 -78.7917 195° South 389 448 20,000 -1,500 Descending Washington Center
09:37PM 36.7925 -78.8261 195° South 389 448 18,500 -1,020 Descending Washington Center
09:38PM 36.6775 -78.8422 186° South 384 442 18,000 -300 Descending Washington Center
09:39PM 36.5814 -78.8408 179° South 377 434 18,000  Level Washington Center
09:40PM 36.4692 -78.8308 176° South 391 450 18,000  Level Washington Center
09:41PM 36.3483 -78.8181 175° South 404 465 18,000 -420 Level Washington Center
09:42PM 36.2358 -78.8108 177° South 404 465 17,200 -1,020 Descending Washington Center
09:43PM 36.1525 -78.8050 177° South 397 457 16,000 -1,440 Descending Washington Center
09:44PM 36.0358 -78.8003 178° South 391 450 14,400 -1,740 Descending Washington Center
09:45PM 35.9692 -78.7950 176° South 377 434 13,500 -1,380 Descending Washington Center
09:45PM 35.9297 -78.7908 175° South 386 444 13,000 -600 Descending Washington Center
09:46PM 35.8858 -78.7889 178° South 373 429 13,000  Level Washington Center
09:46PM 35.8311 -78.8072 195° South 379 436 13,000  Level Washington Center
09:47PM 35.7842 -78.8489 216° Southwest 343 395 13,000  Level Washington Center
09:47PM 35.7603 -78.8786 225° Southwest 340 391 13,000 -720 Level Washington Center
09:48PM 35.7069 -78.9275 217° Southwest 307 353 12,200 -1,260 Descending Washington Center
09:48PM 35.6919 -78.9447 223° Southwest 327 376 11,700 -1,860 Descending Washington Center
09:49PM 35.6294 -79.0061 219° Southwest 315 362 9,700 -2,100 Descending Washington Center
09:50PM 35.5739 -79.0600 218° Southwest 286 329 7,500 -2,220 Descending Washington Center
09:51PM 35.5139 -79.1133 216° Southwest 275 316 5,300 -1,320 Descending Washington Center
09:52PM 35.4492 -79.1769 219° Southwest 275 316 5,000 -180 Descending Washington Center
09:53PM 35.3892 -79.2303 216° Southwest 275 316 5,000  Level Washington Center
09:54PM 35.3311 -79.2861 218° Southwest 275 316 5,000  Level Washington Center